createdAt,value
2023-04-27T00:00:09.378Z,4.00
2023-04-27T00:04:14.439Z,3.90
2023-04-27T00:08:17.407Z,3.80
2023-04-27T00:12:21.515Z,3.70
2023-04-27T00:16:24.383Z,3.70
2023-04-27T00:20:27.486Z,3.60
2023-04-27T00:24:33.529Z,3.60
2023-04-27T00:28:38.013Z,3.50
2023-04-27T00:32:42.911Z,3.50
2023-04-27T00:36:47.895Z,3.40
2023-04-27T00:40:50.688Z,3.30
2023-04-27T00:44:55.176Z,3.20
2023-04-27T00:48:58.537Z,3.20
2023-04-27T00:53:02.556Z,3.10
2023-04-27T00:57:07.050Z,3.10
2023-04-27T01:01:12.937Z,3.00
2023-04-27T01:05:15.910Z,3.10
2023-04-27T01:09:20.063Z,3.10
2023-04-27T01:13:25.893Z,3.20
2023-04-27T01:17:30.189Z,3.20
2023-04-27T01:21:33.211Z,3.20
2023-04-27T01:25:37.371Z,3.20
2023-04-27T01:29:40.280Z,3.10
2023-04-27T01:33:46.251Z,3.00
2023-04-27T01:37:50.437Z,2.90
2023-04-27T01:41:56.651Z,2.90
2023-04-27T01:46:07.159Z,2.90
2023-04-27T01:50:10.670Z,2.80
2023-04-27T01:54:15.644Z,2.80
2023-04-27T01:58:20.936Z,2.80
2023-04-27T02:02:24.960Z,2.90
2023-04-27T02:06:28.186Z,2.90
2023-04-27T02:10:30.932Z,3.00
2023-04-27T02:14:35.039Z,3.00
2023-04-27T02:18:38.441Z,3.10
2023-04-27T02:22:43.691Z,3.10
2023-04-27T02:26:56.290Z,3.10
2023-04-27T02:31:01.380Z,3.10
2023-04-27T02:35:05.056Z,3.20
2023-04-27T02:39:07.769Z,3.20
2023-04-27T02:43:12.780Z,3.20
2023-04-27T02:47:16.835Z,3.30
2023-04-27T02:51:19.577Z,3.30
2023-04-27T02:55:22.372Z,3.30
2023-04-27T02:59:25.430Z,3.30
2023-04-27T03:03:29.763Z,3.40
2023-04-27T03:07:32.592Z,3.30
2023-04-27T03:11:37.337Z,3.30
2023-04-27T03:15:40.424Z,3.30
2023-04-27T03:19:44.457Z,3.20
2023-04-27T03:23:50.437Z,3.20
2023-04-27T03:27:53.635Z,3.10
2023-04-27T03:31:58.997Z,3.00
2023-04-27T03:36:04.351Z,2.90
2023-04-27T03:40:08.507Z,2.70
2023-04-27T03:44:11.332Z,2.60
2023-04-27T03:48:14.571Z,2.60
2023-04-27T03:52:19.395Z,2.50
2023-04-27T03:56:23.054Z,2.40
2023-04-27T04:00:27.228Z,2.30
2023-04-27T04:04:30.390Z,2.30
2023-04-27T04:08:34.710Z,2.30
2023-04-27T04:12:37.741Z,2.30
2023-04-27T04:16:40.503Z,2.20
2023-04-27T04:20:43.310Z,2.20
2023-04-27T04:24:47.378Z,2.20
2023-04-27T04:28:50.226Z,2.10
2023-04-27T04:32:53.492Z,2.10
2023-04-27T04:36:57.594Z,2.00
2023-04-27T04:41:02.449Z,2.00
2023-04-27T04:45:09.300Z,2.00
2023-04-27T04:49:12.525Z,2.10
2023-04-27T04:53:15.870Z,2.20
2023-04-27T04:57:20.551Z,2.20
2023-04-27T05:01:23.519Z,2.30
2023-04-27T05:05:26.413Z,2.40
2023-04-27T05:09:29.518Z,2.60
2023-04-27T05:13:33.610Z,2.70
2023-04-27T05:17:36.482Z,2.80
2023-04-27T05:21:39.486Z,3.40
2023-04-27T05:25:42.759Z,6.00
2023-04-27T05:29:46.883Z,6.00
2023-04-27T05:33:49.624Z,5.80
2023-04-27T05:37:52.545Z,6.30
2023-04-27T05:41:55.297Z,6.30
2023-04-27T05:46:00.461Z,6.90
2023-04-27T05:50:03.675Z,7.40
2023-04-27T05:54:06.505Z,8.80
2023-04-27T05:58:09.483Z,11.20
2023-04-27T06:02:13.638Z,14.20
2023-04-27T06:06:16.512Z,14.40
2023-04-27T06:10:19.387Z,14.50
2023-04-27T06:14:22.151Z,14.80
2023-04-27T06:18:26.481Z,15.60
2023-04-27T06:22:29.141Z,16.70
2023-04-27T06:26:31.847Z,16.70
2023-04-27T06:30:34.600Z,15.30
2023-04-27T06:34:38.653Z,14.60
2023-04-27T06:38:41.388Z,13.90
2023-04-27T06:42:44.142Z,14.20
2023-04-27T06:46:46.890Z,13.40
2023-04-27T06:50:50.934Z,13.10
2023-04-27T06:54:53.634Z,14.00
2023-04-27T06:58:56.411Z,14.30
2023-04-27T07:02:59.248Z,15.20
2023-04-27T07:07:03.383Z,16.00
2023-04-27T07:11:06.400Z,15.90
2023-04-27T07:15:10.552Z,15.10
2023-04-27T07:19:13.507Z,15.20
2023-04-27T07:23:17.824Z,15.70
2023-04-27T07:27:20.556Z,15.80
2023-04-27T07:31:23.422Z,15.70
2023-04-27T07:35:26.352Z,15.80
2023-04-27T07:39:30.829Z,16.00
2023-04-27T07:43:33.555Z,16.30
2023-04-27T07:47:36.355Z,16.40
2023-04-27T07:51:39.654Z,15.60
2023-04-27T07:55:44.715Z,15.90
2023-04-27T07:59:47.454Z,15.50
2023-04-27T08:03:50.407Z,15.70
2023-04-27T08:07:54.527Z,15.00
2023-04-27T08:11:59.973Z,15.10
2023-04-27T08:16:02.975Z,15.20
2023-04-27T08:20:07.901Z,15.20
2023-04-27T08:24:11.552Z,15.70
2023-04-27T08:28:17.066Z,15.70
2023-04-27T08:32:20.640Z,15.20
2023-04-27T08:36:25.329Z,15.40
2023-04-27T08:40:28.509Z,15.00
2023-04-27T08:44:34.026Z,15.30
2023-04-27T08:48:37.012Z,15.60
2023-04-27T08:52:39.947Z,16.00
2023-04-27T08:56:42.817Z,16.20
2023-04-27T09:00:47.922Z,15.90
2023-04-27T09:04:53.495Z,15.60
2023-04-27T09:08:56.555Z,14.90
2023-04-27T09:13:01.130Z,15.00
2023-04-27T09:17:05.773Z,15.60
2023-04-27T09:21:08.857Z,16.10
2023-04-27T09:25:33.902Z,16.00
2023-04-27T09:29:51.233Z,15.60
2023-04-27T09:34:05.187Z,15.60
2023-04-27T09:38:25.328Z,15.50
2023-04-27T09:42:35.071Z,15.10
2023-04-27T09:46:40.529Z,15.30
2023-04-27T09:50:56.225Z,15.90
2023-04-27T09:55:02.307Z,15.40
2023-04-27T09:59:54.175Z,16.00
2023-04-27T10:04:10.184Z,16.10
2023-04-27T10:12:26.867Z,15.10
2023-04-27T10:16:45.099Z,14.80
2023-04-27T10:20:51.852Z,15.10
2023-04-27T10:24:58.058Z,15.30
2023-04-27T10:29:07.191Z,15.60
2023-04-27T10:33:16.760Z,15.90
2023-04-27T10:37:26.044Z,15.80
2023-04-27T10:41:59.017Z,15.10
2023-04-27T10:46:20.982Z,14.20
2023-04-27T10:50:45.137Z,14.40
2023-04-27T10:54:56.304Z,15.30
2023-04-27T11:03:50.606Z,14.70
2023-04-27T11:08:12.814Z,14.60
2023-04-27T11:12:19.103Z,15.20
2023-04-27T11:16:42.969Z,15.40
2023-04-27T11:20:49.681Z,15.90
2023-04-27T11:24:59.126Z,15.60
2023-04-27T11:29:09.579Z,15.10
2023-04-27T11:33:25.797Z,14.70
2023-04-27T11:37:32.077Z,14.80
2023-04-27T11:41:36.258Z,15.00
2023-04-27T11:45:43.367Z,15.30
2023-04-27T11:49:49.698Z,15.50
2023-04-27T11:53:52.671Z,15.60
2023-04-27T11:57:58.997Z,15.70
2023-04-27T12:02:01.789Z,15.50
2023-04-27T12:06:27.454Z,15.60
2023-04-27T12:10:29.433Z,15.30
2023-04-27T12:14:32.197Z,14.90
2023-04-27T12:18:35.119Z,14.90
2023-04-27T12:22:39.312Z,15.10
2023-04-27T12:26:42.080Z,15.10
2023-04-27T12:30:44.854Z,14.80
2023-04-27T12:34:51.833Z,14.50
2023-04-27T12:38:59.900Z,14.70
2023-04-27T12:43:02.661Z,15.00
2023-04-27T12:47:05.572Z,15.10
2023-04-27T12:51:08.844Z,15.60
2023-04-27T12:55:24.813Z,15.30
2023-04-27T12:59:36.632Z,15.40
2023-04-27T13:04:44.760Z,15.40
2023-04-27T13:08:45.727Z,15.70
2023-04-27T13:12:50.403Z,15.50
2023-04-27T13:16:53.295Z,15.60
2023-04-27T13:20:56.308Z,15.50
2023-04-27T13:24:59.237Z,15.50
2023-04-27T13:29:04.673Z,15.80
2023-04-27T13:33:18.310Z,16.00
2023-04-27T13:37:25.489Z,15.90
2023-04-27T13:41:37.120Z,15.80
2023-04-27T13:45:42.564Z,15.90
2023-04-27T13:49:46.563Z,15.80
2023-04-27T13:58:04.800Z,16.10
2023-04-27T14:02:26.007Z,16.10
2023-04-27T14:06:29.501Z,16.50
2023-04-27T14:10:32.829Z,16.90
2023-04-27T14:14:36.225Z,17.40
2023-04-27T14:18:43.315Z,17.90
2023-04-27T14:22:52.166Z,17.80
2023-04-27T14:26:58.197Z,17.50
2023-04-27T14:31:05.324Z,17.20
2023-04-27T14:35:10.019Z,17.00
2023-04-27T14:39:13.514Z,17.40
2023-04-27T14:43:21.755Z,17.80
2023-04-27T14:47:24.903Z,17.90
2023-04-27T14:51:29.597Z,18.20
2023-04-27T14:55:34.909Z,18.40
2023-04-27T14:59:37.760Z,18.70
2023-04-27T15:03:40.572Z,18.80
2023-04-27T15:07:45.828Z,18.60
2023-04-27T15:11:48.690Z,19.00
2023-04-27T15:15:57.551Z,18.70
2023-04-27T15:20:00.959Z,18.40
2023-04-27T15:24:17.175Z,18.20
2023-04-27T15:28:20.205Z,17.90
2023-04-27T15:32:25.995Z,18.10
2023-04-27T15:36:29.114Z,18.50
2023-04-27T15:40:34.019Z,18.40
2023-04-27T15:44:36.750Z,17.80
2023-04-27T15:48:39.700Z,17.30
2023-04-27T15:52:42.518Z,17.60
2023-04-27T15:56:46.975Z,17.50
2023-04-27T16:00:49.912Z,17.60
2023-04-27T16:04:55.880Z,17.30
2023-04-27T16:08:58.641Z,16.70
2023-04-27T16:13:03.245Z,16.60
2023-04-27T16:17:06.667Z,16.40
2023-04-27T16:21:09.363Z,16.30
2023-04-27T16:25:12.190Z,16.00
2023-04-27T16:29:16.660Z,15.60
2023-04-27T16:33:21.222Z,15.50
2023-04-27T16:37:24.132Z,15.30
2023-04-27T16:41:26.930Z,14.90
2023-04-27T16:45:31.144Z,14.80
2023-04-27T16:49:34.187Z,14.80
2023-04-27T16:53:38.014Z,14.70
2023-04-27T16:57:41.226Z,14.60
2023-04-27T17:01:45.487Z,14.30
2023-04-27T17:14:24.413Z,14.10
2023-04-27T17:18:28.567Z,14.00
2023-04-27T17:22:32.947Z,13.80
2023-04-27T17:26:35.979Z,13.70
2023-04-27T17:30:39.111Z,13.50
2023-04-27T17:34:43.691Z,13.50
2023-04-27T17:38:46.752Z,13.40
2023-04-27T17:42:50.232Z,13.40
2023-04-27T17:46:53.503Z,13.20
2023-04-27T17:50:58.091Z,13.10
2023-04-27T17:55:00.920Z,13.10
2023-04-27T17:59:04.320Z,13.00
2023-04-27T18:03:08.318Z,12.90
2023-04-27T18:07:12.663Z,12.80
2023-04-27T18:11:15.885Z,12.70
2023-04-27T18:15:18.843Z,12.70
2023-04-27T18:19:21.660Z,12.60
2023-04-27T18:23:25.890Z,12.50
2023-04-27T18:27:28.739Z,12.40
2023-04-27T18:31:31.674Z,12.30
2023-04-27T18:35:34.834Z,12.30
2023-04-27T18:39:39.035Z,12.20
2023-04-27T18:43:41.936Z,12.10
2023-04-27T18:47:44.875Z,12.00
2023-04-27T18:51:47.724Z,11.80
2023-04-27T18:55:51.971Z,11.80
2023-04-27T18:59:54.704Z,11.60
2023-04-27T19:03:57.895Z,11.60
2023-04-27T19:08:01.545Z,11.50
2023-04-27T19:12:06.145Z,11.50
2023-04-27T19:16:09.565Z,11.30
2023-04-27T19:20:12.777Z,11.20
2023-04-27T19:24:15.709Z,11.10
2023-04-27T19:28:20.566Z,11.10
2023-04-27T19:32:26.793Z,11.00
2023-04-27T19:36:31.834Z,10.90
2023-04-27T19:40:34.705Z,10.80
2023-04-27T19:44:38.883Z,10.80
2023-04-27T19:48:42.489Z,10.70
2023-04-27T19:52:45.592Z,10.60
2023-04-27T19:56:48.422Z,10.60
2023-04-27T20:00:52.641Z,10.50
2023-04-27T20:04:56.111Z,10.40
2023-04-27T20:08:59.390Z,10.30
2023-04-27T20:13:02.360Z,10.20
2023-04-27T20:17:06.843Z,10.20
2023-04-27T20:21:09.639Z,10.10
2023-04-27T20:25:14.638Z,10.10
2023-04-27T20:29:17.712Z,10.00
2023-04-27T20:33:22.043Z,10.00
2023-04-27T20:37:24.863Z,10.00
2023-04-27T20:41:27.685Z,10.00
2023-04-27T20:45:31.048Z,10.00
2023-04-27T20:49:35.861Z,10.00
2023-04-27T20:53:40.015Z,10.00
2023-04-27T20:57:42.869Z,10.00
2023-04-27T21:01:45.907Z,10.00
2023-04-27T21:05:50.104Z,9.90
2023-04-27T21:09:52.841Z,10.00
2023-04-27T21:13:55.602Z,10.00
2023-04-27T21:17:58.419Z,9.90
2023-04-27T21:22:02.549Z,9.90
2023-04-27T21:26:06.034Z,9.90
2023-04-27T21:30:10.311Z,9.90
2023-04-27T21:34:14.966Z,9.90
2023-04-27T21:38:19.588Z,9.90
2023-04-27T21:42:22.547Z,10.00
2023-04-27T21:46:28.350Z,10.00
2023-04-27T21:50:35.887Z,10.00
2023-04-27T21:54:42.597Z,10.00
2023-04-27T21:58:45.354Z,10.00
2023-04-27T22:02:48.442Z,10.00
2023-04-27T22:06:52.473Z,10.00
2023-04-27T22:10:56.972Z,10.00
2023-04-27T22:14:59.726Z,9.90
2023-04-27T22:19:02.983Z,9.90
2023-04-27T22:23:05.707Z,9.80
2023-04-27T22:27:09.759Z,9.80
2023-04-27T22:31:12.531Z,9.80
2023-04-27T22:35:25.317Z,9.80
2023-04-27T22:39:31.166Z,9.80
2023-04-27T22:43:37.813Z,9.80
2023-04-27T22:47:41.305Z,9.80
2023-04-27T22:51:44.508Z,9.70
2023-04-27T22:55:47.234Z,9.80
2023-04-27T22:59:51.501Z,9.80
2023-04-27T23:03:54.287Z,9.80
2023-04-27T23:07:57.352Z,9.80
2023-04-27T23:12:00.992Z,9.80
2023-04-27T23:16:06.666Z,9.80
2023-04-27T23:20:20.459Z,9.80
2023-04-27T23:24:27.223Z,9.80
2023-04-27T23:28:29.976Z,9.80
2023-04-27T23:32:35.779Z,9.70
2023-04-27T23:36:38.553Z,9.80
2023-04-27T23:40:41.313Z,9.80
2023-04-27T23:44:44.118Z,9.80
2023-04-27T23:48:48.210Z,9.80
2023-04-27T23:52:50.933Z,9.80
2023-04-27T23:56:53.759Z,9.80
